Time;durP1;ratioP1;P1;durP2;ratioP2;P2;SDS_P1;SDS_P2;PMS_P1;PMS_P2;Temp;Humidity;BMP_temperature;BMP_pressure;BME280_temperature;BME280_humidity;BME280_pressure;Samples;Min_cycle;Max_cycle;Signal;HPM_P1;HPM_P2
2023/10/11 00:01:28;;;;;;;10.73;6.13;;;;;;;;;;5016595;28;20634;-66
2023/10/11 00:03:54;;;;;;;11.23;6.13;;;;;;;;;;5016826;28;20279;-66
2023/10/11 00:06:20;;;;;;;11.10;5.87;;;;;;;;;;5015282;28;20179;-66
2023/10/11 00:08:50;;;;;;;13.77;5.83;;;;;;;;;;5015314;28;20180;-66
2023/10/11 00:11:18;;;;;;;15.53;5.90;;;;;;;;;;5016322;28;20182;-66
2023/10/11 00:13:46;;;;;;;14.30;6.10;;;;;;;;;;5015491;28;20207;-66
2023/10/11 00:16:16;;;;;;;11.13;6.27;;;;;;;;;;5016441;28;20168;-67
2023/10/11 00:18:42;;;;;;;11.47;6.60;;;;;;;;;;5016069;28;20657;-66
2023/10/11 00:21:15;;;;;;;10.30;5.90;;;;;;;;;;5015053;28;20199;-67
2023/10/11 00:23:51;;;;;;;17.63;6.73;;;;;;;;;;5016161;28;20218;-66
2023/10/11 00:26:18;;;;;;;8.73;6.47;;;;;;;;;;5016468;28;20166;-66
2023/10/11 00:28:44;;;;;;;9.97;6.53;;;;;;;;;;5016117;28;20168;-68
2023/10/11 00:31:18;;;;;;;9.77;6.17;;;;;;;;;;5016002;28;20175;-66
2023/10/11 00:33:44;;;;;;;12.83;6.67;;;;;;;;;;5015846;28;20194;-66
2023/10/11 00:36:10;;;;;;;8.97;6.43;;;;;;;;;;5015968;28;20544;-66
2023/10/11 00:38:45;;;;;;;11.30;6.30;;;;;;;;;;5014466;28;20728;-66
2023/10/11 00:41:20;;;;;;;8.17;5.70;;;;;;;;;;5014572;28;20186;-66
2023/10/11 00:43:54;;;;;;;17.30;5.90;;;;;;;;;;5015737;28;20207;-67
2023/10/11 00:46:22;;;;;;;13.03;6.60;;;;;;;;;;5014595;28;20630;-67
2023/10/11 00:48:53;;;;;;;11.50;6.23;;;;;;;;;;5014401;28;20216;-66
2023/10/11 00:51:24;;;;;;;12.10;5.97;;;;;;;;;;5014347;28;20182;-66
2023/10/11 00:53:50;;;;;;;10.40;6.50;;;;;;;;;;5015362;28;20266;-66
2023/10/11 00:56:18;;;;;;;13.17;6.17;;;;;;;;;;5016178;28;20199;-66
2023/10/11 00:58:44;;;;;;;13.10;6.60;;;;;;;;;;5014040;28;20222;-66
2023/10/11 01:01:10;;;;;;;9.77;6.07;;;;;;;;;;5015773;28;20211;-66
2023/10/11 01:03:37;;;;;;;10.23;5.90;;;;;;;;;;5015234;28;20722;-66
2023/10/11 01:06:04;;;;;;;14.50;6.37;;;;;;;;;;5015293;28;20178;-67
2023/10/11 01:08:39;;;;;;;9.07;6.43;;;;;;;;;;5015382;28;20168;-66
2023/10/11 01:11:12;;;;;;;12.63;6.57;;;;;;;;;;5014015;28;20661;-66
2023/10/11 01:13:53;;;;;;;10.30;6.90;;;;;;;;;;5014043;28;20225;-66
2023/10/11 01:16:28;;;;;;;17.10;6.87;;;;;;;;;;5015677;28;20168;-66
2023/10/11 01:18:54;;;;;;;9.47;6.53;;;;;;;;;;5015172;28;20239;-66
2023/10/11 01:21:21;;;;;;;10.60;6.63;;;;;;;;;;5013760;28;20262;-66
2023/10/11 01:23:48;;;;;;;11.43;5.83;;;;;;;;;;5013566;28;20226;-66
2023/10/11 01:26:15;;;;;;;17.07;6.57;;;;;;;;;;5014956;28;20197;-67
2023/10/11 01:28:44;;;;;;;11.53;6.20;;;;;;;;;;5013570;28;20207;-66
2023/10/11 01:31:10;;;;;;;15.17;7.10;;;;;;;;;;5015090;28;20615;-66
2023/10/11 01:33:41;;;;;;;17.97;7.23;;;;;;;;;;5013634;28;20295;-66
2023/10/11 01:36:08;;;;;;;11.20;6.70;;;;;;;;;;5013765;28;20196;-66
2023/10/11 01:38:46;;;;;;;15.13;6.73;;;;;;;;;;5013758;28;20191;-66
2023/10/11 01:41:13;;;;;;;13.33;6.83;;;;;;;;;;5013855;28;20172;-66
2023/10/11 01:43:39;;;;;;;13.07;6.23;;;;;;;;;;5013728;28;20212;-66
2023/10/11 01:46:05;;;;;;;16.03;6.20;;;;;;;;;;5015471;28;20226;-66
2023/10/11 01:48:31;;;;;;;11.20;6.17;;;;;;;;;;5013608;28;20176;-66
2023/10/11 01:51:08;;;;;;;11.77;6.10;;;;;;;;;;5014625;28;20176;-66
2023/10/11 01:53:35;;;;;;;10.80;6.27;;;;;;;;;;5013220;28;20223;-66
2023/10/11 01:56:01;;;;;;;13.43;6.70;;;;;;;;;;5014784;28;20176;-66
2023/10/11 01:58:27;;;;;;;13.10;6.43;;;;;;;;;;5013105;28;20307;-66
2023/10/11 02:00:53;;;;;;;14.80;6.80;;;;;;;;;;5014654;28;20188;-66
2023/10/11 02:03:19;;;;;;;12.30;6.30;;;;;;;;;;5012863;28;20294;-66
2023/10/11 02:05:45;;;;;;;13.43;6.83;;;;;;;;;;5012941;28;20550;-66
2023/10/11 02:08:17;;;;;;;13.27;6.70;;;;;;;;;;5014524;28;20176;-66
2023/10/11 02:10:44;;;;;;;17.83;6.70;;;;;;;;;;5014187;28;20210;-66
2023/10/11 02:13:10;;;;;;;9.63;5.97;;;;;;;;;;5012703;28;20254;-66
2023/10/11 02:15:38;;;;;;;12.93;6.37;;;;;;;;;;5013254;28;20204;-66
2023/10/11 02:18:08;;;;;;;13.00;6.73;;;;;;;;;;5012697;28;20691;-66
2023/10/11 02:20:46;;;;;;;12.47;6.77;;;;;;;;;;5014635;28;20171;-66
2023/10/11 02:23:12;;;;;;;12.37;6.93;;;;;;;;;;5014200;28;20215;-66
2023/10/11 02:25:41;;;;;;;13.87;7.13;;;;;;;;;;5014060;28;20229;-66
2023/10/11 02:28:09;;;;;;;17.10;7.00;;;;;;;;;;5013935;28;20187;-66
2023/10/11 02:30:38;;;;;;;14.87;7.10;;;;;;;;;;5013733;28;20218;-66
2023/10/11 02:33:07;;;;;;;16.77;6.70;;;;;;;;;;5014775;28;20608;-66
2023/10/11 02:35:49;;;;;;;11.03;6.70;;;;;;;;;;5013943;28;20583;-66
2023/10/11 02:38:21;;;;;;;13.50;6.10;;;;;;;;;;5012753;28;20626;-66
2023/10/11 02:40:54;;;;;;;17.13;6.73;;;;;;;;;;5013667;28;20583;-66
2023/10/11 02:43:21;;;;;;;12.53;6.83;;;;;;;;;;5014091;28;20239;-67
2023/10/11 02:45:46;;;;;;;11.53;6.93;;;;;;;;;;5013986;28;20680;-67
2023/10/11 02:48:12;;;;;;;17.67;6.47;;;;;;;;;;5013955;28;20176;-67
2023/10/11 02:50:38;;;;;;;15.13;7.80;;;;;;;;;;5013880;28;20302;-67
2023/10/11 02:53:21;;;;;;;18.57;7.53;;;;;;;;;;5011976;28;20232;-67
2023/10/11 02:55:57;;;;;;;12.40;6.37;;;;;;;;;;5013607;28;20235;-67
2023/10/11 02:58:24;;;;;;;10.57;6.50;;;;;;;;;;5013784;28;20247;-66
2023/10/11 03:00:56;;;;;;;17.67;7.13;;;;;;;;;;5013650;28;20642;-67
2023/10/11 03:03:26;;;;;;;13.87;7.27;;;;;;;;;;5029482;23;20228;-70
2023/10/11 03:05:52;;;;;;;12.57;6.73;;;;;;;;;;5015115;28;20165;-70
2023/10/11 03:08:19;;;;;;;13.27;6.83;;;;;;;;;;5014489;28;20618;-70
2023/10/11 03:10:57;;;;;;;11.63;6.93;;;;;;;;;;5016705;28;20208;-70
2023/10/11 03:13:29;;;;;;;14.27;6.93;;;;;;;;;;5015010;28;20214;-71
2023/10/11 03:15:57;;;;;;;12.77;7.27;;;;;;;;;;5014089;28;20190;-71
2023/10/11 03:18:25;;;;;;;12.47;6.50;;;;;;;;;;5013747;28;20183;-70
2023/10/11 03:20:51;;;;;;;13.07;6.40;;;;;;;;;;5013805;28;20638;-70
2023/10/11 03:23:21;;;;;;;12.17;6.60;;;;;;;;;;5012264;28;20219;-69
2023/10/11 03:25:49;;;;;;;17.13;7.63;;;;;;;;;;5012216;28;20180;-70
2023/10/11 03:28:15;;;;;;;10.40;6.40;;;;;;;;;;5013250;28;20176;-70
2023/10/11 03:30:42;;;;;;;13.43;6.80;;;;;;;;;;5013796;28;20696;-69
2023/10/11 03:33:09;;;;;;;17.70;6.40;;;;;;;;;;5011905;28;20224;-70
2023/10/11 03:35:38;;;;;;;12.67;6.83;;;;;;;;;;5013357;28;20211;-70
2023/10/11 03:38:06;;;;;;;14.90;6.97;;;;;;;;;;5013813;28;20270;-70
2023/10/11 03:40:34;;;;;;;15.90;6.40;;;;;;;;;;5012061;28;20187;-70
2023/10/11 03:43:16;;;;;;;14.37;6.63;;;;;;;;;;5011930;28;20217;-70
2023/10/11 03:45:56;;;;;;;12.50;6.53;;;;;;;;;;5013516;28;20207;-69
2023/10/11 03:48:27;;;;;;;13.10;6.63;;;;;;;;;;5013280;28;20152;-70
2023/10/11 03:50:53;;;;;;;14.73;6.63;;;;;;;;;;5011825;28;20172;-70
2023/10/11 03:53:20;;;;;;;16.20;7.07;;;;;;;;;;5011519;28;20210;-69
2023/10/11 03:55:46;;;;;;;14.93;7.53;;;;;;;;;;5012884;28;20191;-70
2023/10/11 03:58:33;;;;;;;12.93;6.77;;;;;;;;;;5012946;28;20172;-69
2023/10/11 04:04:00;;;;;;;16.97;6.87;;;;;;;;;;4990032;28;20354;-70
2023/10/11 04:06:27;;;;;;;14.17;6.70;;;;;;;;;;5012703;28;20551;-70
2023/10/11 04:09:00;;;;;;;10.87;7.10;;;;;;;;;;5012667;28;20184;-70
2023/10/11 04:11:54;;;;;;;14.50;7.27;;;;;;;;;;5011565;28;20172;-69
2023/10/11 04:19:52;;;;;;;12.80;7.40;;;;;;;;;;5012947;28;20188;-70
2023/10/11 04:22:31;;;;;;;9.27;6.50;;;;;;;;;;5011324;28;20222;-70
2023/10/11 04:24:57;;;;;;;14.63;7.43;;;;;;;;;;5013249;28;20599;-70
2023/10/11 04:29:50;;;;;;;14.30;7.90;;;;;;;;;;5012932;28;20190;-70
2023/10/11 04:35:18;;;;;;;12.30;7.70;;;;;;;;;;5013138;28;20179;-70
2023/10/11 04:37:51;;;;;;;15.47;7.13;;;;;;;;;;5012936;28;20315;-70
2023/10/11 04:40:35;;;;;;;13.63;6.87;;;;;;;;;;5014222;28;20183;-69
2023/10/11 04:43:05;;;;;;;11.27;7.57;;;;;;;;;;5016283;28;20254;-70
2023/10/11 04:45:44;;;;;;;16.00;7.30;;;;;;;;;;5014820;28;20183;-70
2023/10/11 04:48:14;;;;;;;19.30;7.67;;;;;;;;;;5016379;28;20550;-70
2023/10/11 04:50:44;;;;;;;14.63;7.40;;;;;;;;;;5014748;28;20179;-70
2023/10/11 04:53:17;;;;;;;15.80;7.63;;;;;;;;;;5016093;28;20207;-70
2023/10/11 04:55:46;;;;;;;15.97;8.00;;;;;;;;;;5014740;28;20184;-70
2023/10/11 04:58:21;;;;;;;16.27;7.73;;;;;;;;;;5014665;28;20271;-70
2023/10/11 05:00:48;;;;;;;12.90;7.37;;;;;;;;;;5015884;28;20168;-70
2023/10/11 05:03:18;;;;;;;17.40;7.60;;;;;;;;;;5015338;28;20219;-72
2023/10/11 05:05:58;;;;;;;15.97;8.00;;;;;;;;;;5014536;28;20195;-70
2023/10/11 05:08:50;;;;;;;13.50;6.63;;;;;;;;;;5014427;28;20607;-70
2023/10/11 05:11:19;;;;;;;15.50;7.93;;;;;;;;;;5015548;28;20572;-71
2023/10/11 05:13:59;;;;;;;15.57;7.70;;;;;;;;;;5014488;28;20217;-70
2023/10/11 05:16:25;;;;;;;16.97;8.40;;;;;;;;;;5014382;28;20274;-71
2023/10/11 05:18:51;;;;;;;12.03;7.67;;;;;;;;;;5014301;28;20190;-70
2023/10/11 05:21:26;;;;;;;15.17;7.83;;;;;;;;;;5014008;28;20599;-71
2023/10/11 05:24:14;;;;;;;15.07;7.70;;;;;;;;;;5013750;28;20276;-70
2023/10/11 05:26:47;;;;;;;18.93;8.03;;;;;;;;;;5015099;28;20619;-71
2023/10/11 05:29:31;;;;;;;16.87;7.63;;;;;;;;;;5013837;28;20172;-71
2023/10/11 05:32:19;;;;;;;14.80;7.67;;;;;;;;;;5013856;28;20630;-71
2023/10/11 05:35:07;;;;;;;15.00;7.70;;;;;;;;;;5013776;28;20642;-70
2023/10/11 05:51:21;;;;;;;13.97;8.00;;;;;;;;;;5013859;28;20670;-70
2023/10/11 05:53:49;;;;;;;12.77;7.10;;;;;;;;;;5015001;28;20195;-71
2023/10/11 05:56:20;;;;;;;16.70;8.00;;;;;;;;;;5015056;28;20175;-71
2023/10/11 05:58:50;;;;;;;15.57;7.67;;;;;;;;;;5013571;28;20179;-71
2023/10/11 06:01:17;;;;;;;15.17;7.30;;;;;;;;;;5014688;28;20176;-71
2023/10/11 06:03:44;;;;;;;11.90;7.47;;;;;;;;;;5014569;28;20604;-71
2023/10/11 06:08:57;;;;;;;17.03;7.40;;;;;;;;;;5014855;28;20210;-72
2023/10/11 06:11:29;;;;;;;13.70;7.43;;;;;;;;;;5015026;28;20545;-72
2023/10/11 06:14:04;;;;;;;10.77;6.87;;;;;;;;;;5014315;28;20223;-71
2023/10/11 06:16:36;;;;;;;14.87;7.40;;;;;;;;;;5014321;28;20162;-71
2023/10/11 06:19:16;;;;;;;17.07;8.10;;;;;;;;;;5013083;28;20172;-71
2023/10/11 06:21:58;;;;;;;17.63;8.13;;;;;;;;;;5014282;28;20160;-71
2023/10/11 06:24:24;;;;;;;14.07;7.63;;;;;;;;;;5012986;28;20180;-71
2023/10/11 06:26:56;;;;;;;16.80;7.17;;;;;;;;;;5013051;28;20218;-71
2023/10/11 06:29:29;;;;;;;15.43;8.00;;;;;;;;;;5014306;28;20621;-71
2023/10/11 06:31:55;;;;;;;17.33;7.83;;;;;;;;;;5014468;28;20163;-71
2023/10/11 06:36:51;;;;;;;11.60;6.37;;;;;;;;;;5014317;28;20253;-71
2023/10/11 06:39:33;;;;;;;13.20;6.47;;;;;;;;;;5013590;28;20184;-71
2023/10/11 06:41:59;;;;;;;16.77;6.80;;;;;;;;;;5015342;28;20187;-71
2023/10/11 06:44:25;;;;;;;8.27;6.00;;;;;;;;;;5015067;28;20296;-72
2023/10/11 06:46:51;;;;;;;10.67;6.10;;;;;;;;;;5016266;28;20207;-72
2023/10/11 06:49:19;;;;;;;12.57;5.93;;;;;;;;;;5016447;28;20191;-72
2023/10/11 06:51:45;;;;;;;12.00;6.43;;;;;;;;;;5014104;28;20662;-71
2023/10/11 06:54:14;;;;;;;17.53;7.13;;;;;;;;;;5014290;28;20184;-71
2023/10/11 06:56:40;;;;;;;12.63;6.13;;;;;;;;;;5012640;28;20203;-71
2023/10/11 06:59:06;;;;;;;15.87;6.50;;;;;;;;;;5012853;28;20625;-71
2023/10/11 07:01:35;;;;;;;10.20;5.93;;;;;;;;;;5013166;28;20179;-71
2023/10/11 07:04:01;;;;;;;15.33;6.80;;;;;;;;;;5011838;28;20217;-71
2023/10/11 07:06:29;;;;;;;12.10;6.00;;;;;;;;;;5012376;28;20226;-71
2023/10/11 07:08:58;;;;;;;10.30;6.23;;;;;;;;;;5013670;28;20183;-71
2023/10/11 07:11:41;;;;;;;13.10;6.67;;;;;;;;;;5013565;28;20180;-71
2023/10/11 07:14:14;;;;;;;16.00;6.57;;;;;;;;;;5012277;28;20294;-70
2023/10/11 07:16:42;;;;;;;12.10;6.73;;;;;;;;;;5013498;28;20171;-71
2023/10/11 07:19:09;;;;;;;13.97;7.17;;;;;;;;;;5013495;28;20231;-71
2023/10/11 07:24:30;;;;;;;10.27;6.97;;;;;;;;;;5013718;28;20172;-72
2023/10/11 07:27:07;;;;;;;15.90;9.60;;;;;;;;;;5013338;28;20625;-71
2023/10/11 07:29:35;;;;;;;14.03;9.57;;;;;;;;;;5011881;28;20271;-71
2023/10/11 07:32:02;;;;;;;10.80;7.37;;;;;;;;;;5011617;28;20189;-70
2023/10/11 07:34:28;;;;;;;15.00;7.43;;;;;;;;;;5012892;28;20176;-72
2023/10/11 07:36:55;;;;;;;13.53;7.73;;;;;;;;;;5013115;28;20179;-71
2023/10/11 07:41:52;;;;;;;15.57;8.07;;;;;;;;;;5013185;28;20269;-71
2023/10/11 07:44:18;;;;;;;12.20;7.13;;;;;;;;;;5013024;28;20602;-71
2023/10/11 07:46:45;;;;;;;13.97;6.03;;;;;;;;;;5013001;28;20647;-71
2023/10/11 07:49:16;;;;;;;11.37;6.60;;;;;;;;;;5011716;28;20187;-71
2023/10/11 07:51:42;;;;;;;14.63;6.90;;;;;;;;;;5011929;28;20575;-72
2023/10/11 07:54:19;;;;;;;21.70;7.33;;;;;;;;;;5013205;28;20195;-71
2023/10/11 07:56:46;;;;;;;12.93;6.73;;;;;;;;;;5012002;28;20210;-71
2023/10/11 07:59:12;;;;;;;13.37;7.20;;;;;;;;;;5011622;28;20218;-72
2023/10/11 08:01:44;;;;;;;19.40;6.23;;;;;;;;;;5012855;28;20184;-71
2023/10/11 08:04:18;;;;;;;13.67;6.07;;;;;;;;;;5012756;28;20290;-72
2023/10/11 08:06:45;;;;;;;14.27;6.80;;;;;;;;;;5011404;28;20606;-70
2023/10/11 08:09:18;;;;;;;9.70;6.07;;;;;;;;;;5012868;28;20183;-69
2023/10/11 08:11:45;;;;;;;15.33;6.17;;;;;;;;;;5012603;28;20259;-71
2023/10/11 08:14:15;;;;;;;14.77;6.30;;;;;;;;;;5013852;28;20552;-69
2023/10/11 08:16:42;;;;;;;9.57;6.17;;;;;;;;;;5015229;28;20171;-70
2023/10/11 08:19:08;;;;;;;14.87;6.47;;;;;;;;;;5015124;28;20203;-70
2023/10/11 08:21:34;;;;;;;16.40;6.17;;;;;;;;;;5016414;28;20187;-70
2023/10/11 08:24:00;;;;;;;12.17;7.07;;;;;;;;;;5016329;28;20299;-71
2023/10/11 08:26:32;;;;;;;11.53;6.47;;;;;;;;;;5015142;28;20270;-70
2023/10/11 08:29:05;;;;;;;24.50;8.27;;;;;;;;;;5016496;28;20167;-70
2023/10/11 08:31:35;;;;;;;14.50;6.20;;;;;;;;;;5016469;28;20698;-70
2023/10/11 08:34:04;;;;;;;15.70;9.33;;;;;;;;;;5014835;28;20204;-70
2023/10/11 08:36:33;;;;;;;10.43;6.67;;;;;;;;;;5016091;28;20176;-69
2023/10/11 08:39:03;;;;;;;12.00;5.83;;;;;;;;;;5016137;28;20186;-70
2023/10/11 08:41:30;;;;;;;16.77;6.33;;;;;;;;;;5015671;28;20184;-71
2023/10/11 08:43:59;;;;;;;14.20;6.90;;;;;;;;;;5014720;28;20207;-70
2023/10/11 08:46:28;;;;;;;9.50;6.17;;;;;;;;;;5016141;28;20178;-70
2023/10/11 08:48:55;;;;;;;8.50;5.60;;;;;;;;;;5016298;28;20179;-70
2023/10/11 08:51:22;;;;;;;13.17;5.57;;;;;;;;;;5016400;28;20179;-71
2023/10/11 08:53:54;;;;;;;17.13;7.13;;;;;;;;;;5014822;28;20207;-70
2023/10/11 08:56:23;;;;;;;13.53;6.60;;;;;;;;;;5016326;28;20242;-70
2023/10/11 08:58:51;;;;;;;13.80;6.80;;;;;;;;;;5014567;28;20187;-70
2023/10/11 09:01:17;;;;;;;13.17;7.53;;;;;;;;;;5014290;28;20266;-71
2023/10/11 09:03:43;;;;;;;10.57;5.63;;;;;;;;;;5015899;28;20298;-71
2023/10/11 09:06:22;;;;;;;10.23;5.40;;;;;;;;;;5015677;28;20176;-70
2023/10/11 09:08:49;;;;;;;11.17;5.77;;;;;;;;;;5015435;28;20172;-71
2023/10/11 09:11:28;;;;;;;11.97;6.10;;;;;;;;;;5015388;28;20318;-70
2023/10/11 09:14:09;;;;;;;11.50;6.13;;;;;;;;;;5014053;28;20218;-70
2023/10/11 09:16:35;;;;;;;9.27;5.60;;;;;;;;;;5015445;28;20158;-71
2023/10/11 09:19:05;;;;;;;13.97;6.13;;;;;;;;;;5014004;28;20638;-71
2023/10/11 09:21:35;;;;;;;11.00;5.50;;;;;;;;;;5014161;28;20179;-71
2023/10/11 09:24:01;;;;;;;12.23;6.07;;;;;;;;;;5015230;28;20227;-71
2023/10/11 09:26:34;;;;;;;11.03;6.10;;;;;;;;;;5013705;28;20180;-71
2023/10/11 09:29:02;;;;;;;17.27;6.17;;;;;;;;;;5015847;28;20163;-70
2023/10/11 09:31:31;;;;;;;11.87;5.73;;;;;;;;;;5014053;28;20176;-71
2023/10/11 09:34:02;;;;;;;12.53;6.07;;;;;;;;;;5015064;28;20192;-71
2023/10/11 09:36:29;;;;;;;13.03;5.43;;;;;;;;;;5015109;28;20571;-71
2023/10/11 09:38:55;;;;;;;14.17;5.70;;;;;;;;;;5015105;28;20179;-71
2023/10/11 09:41:23;;;;;;;11.10;5.63;;;;;;;;;;5015122;28;20180;-72
2023/10/11 09:43:49;;;;;;;8.03;5.47;;;;;;;;;;5014732;28;20226;-71
2023/10/11 09:46:17;;;;;;;16.80;6.43;;;;;;;;;;5014981;28;20642;-71
2023/10/11 09:48:47;;;;;;;13.13;6.20;;;;;;;;;;5013744;28;20323;-70
2023/10/11 09:51:14;;;;;;;12.07;5.57;;;;;;;;;;5015073;28;20665;-72
2023/10/11 09:53:49;;;;;;;11.80;6.00;;;;;;;;;;5014951;28;20196;-71
2023/10/11 09:56:31;;;;;;;16.73;5.97;;;;;;;;;;5015098;28;20166;-71
2023/10/11 09:58:57;;;;;;;13.77;6.33;;;;;;;;;;5014747;28;20180;-70
2023/10/11 10:01:41;;;;;;;10.17;5.57;;;;;;;;;;5014926;28;20302;-71
2023/10/11 10:04:09;;;;;;;16.30;6.07;;;;;;;;;;5014548;28;20218;-71
2023/10/11 10:06:35;;;;;;;10.27;5.97;;;;;;;;;;5014818;28;20175;-71
2023/10/11 10:09:16;;;;;;;14.50;6.20;;;;;;;;;;5014906;28;20220;-71
2023/10/11 10:12:06;;;;;;;12.50;6.30;;;;;;;;;;5014856;28;20243;-71
2023/10/11 10:14:36;;;;;;;13.87;6.60;;;;;;;;;;5013471;28;20183;-71
2023/10/11 10:17:10;;;;;;;14.97;6.17;;;;;;;;;;5014526;28;20172;-72
2023/10/11 10:19:39;;;;;;;16.53;6.60;;;;;;;;;;5013430;28;20645;-72
2023/10/11 10:22:27;;;;;;;12.10;6.17;;;;;;;;;;5014662;28;20660;-71
2023/10/11 10:24:56;;;;;;;11.57;6.57;;;;;;;;;;5013281;28;20267;-71
2023/10/11 10:27:34;;;;;;;16.77;6.67;;;;;;;;;;5013726;28;20276;-71
2023/10/11 10:30:03;;;;;;;11.97;5.67;;;;;;;;;;5015834;28;20164;-71
2023/10/11 10:32:29;;;;;;;16.20;6.00;;;;;;;;;;5015485;28;20294;-71
2023/10/11 10:35:14;;;;;;;10.13;5.90;;;;;;;;;;5016223;28;20654;-71
2023/10/11 10:37:56;;;;;;;20.63;6.90;;;;;;;;;;5014458;28;20183;-70
2023/10/11 10:40:26;;;;;;;12.60;6.20;;;;;;;;;;5014806;28;20176;-71
2023/10/11 10:43:14;;;;;;;18.50;6.27;;;;;;;;;;5014666;28;20212;-71
2023/10/11 10:45:40;;;;;;;18.00;6.60;;;;;;;;;;5014069;28;20668;-71
2023/10/11 10:48:15;;;;;;;18.80;6.47;;;;;;;;;;5014546;28;20657;-70
2023/10/11 10:50:47;;;;;;;12.73;6.07;;;;;;;;;;5014316;28;20290;-71
2023/10/11 10:53:14;;;;;;;14.77;6.40;;;;;;;;;;5014161;28;20211;-70
2023/10/11 10:55:42;;;;;;;19.23;6.23;;;;;;;;;;5013742;28;20496;-71
2023/10/11 10:58:08;;;;;;;15.30;6.07;;;;;;;;;;5013006;28;20179;-71
2023/10/11 11:00:38;;;;;;;11.90;6.17;;;;;;;;;;5014564;28;20183;-70
2023/10/11 11:03:16;;;;;;;13.77;6.13;;;;;;;;;;5012265;28;20361;-70
2023/10/11 11:05:55;;;;;;;17.43;6.30;;;;;;;;;;5012856;28;20172;-71
2023/10/11 11:08:25;;;;;;;15.33;6.67;;;;;;;;;;5014504;28;20160;-71
2023/10/11 11:11:25;;;;;;;20.23;6.80;;;;;;;;;;5012583;28;20717;-71
2023/10/11 11:13:54;;;;;;;17.87;5.87;;;;;;;;;;5013798;28;20218;-71
2023/10/11 11:16:26;;;;;;;17.47;6.57;;;;;;;;;;5013715;28;20176;-71
2023/10/11 11:18:52;;;;;;;13.87;6.40;;;;;;;;;;5013797;28;20540;-71
2023/10/11 11:21:25;;;;;;;14.97;5.73;;;;;;;;;;5013445;28;20179;-71
2023/10/11 11:23:52;;;;;;;13.77;6.27;;;;;;;;;;5013610;28;20618;-71
2023/10/11 11:26:22;;;;;;;17.47;6.60;;;;;;;;;;5013226;28;20203;-71
2023/10/11 11:28:51;;;;;;;15.73;6.70;;;;;;;;;;5014356;28;20492;-71
2023/10/11 11:34:05;;;;;;;15.90;6.23;;;;;;;;;;5013522;28;20685;-70
2023/10/11 11:36:31;;;;;;;11.37;6.00;;;;;;;;;;5013228;28;20554;-72
2023/10/11 11:39:17;;;;;;;17.40;6.50;;;;;;;;;;5013247;28;20206;-71
2023/10/11 11:41:52;;;;;;;17.77;6.43;;;;;;;;;;5013242;28;20168;-72
2023/10/11 11:44:24;;;;;;;11.33;6.23;;;;;;;;;;5011999;28;20199;-73
2023/10/11 11:46:51;;;;;;;17.50;6.63;;;;;;;;;;5013259;28;20180;-72
2023/10/11 11:49:20;;;;;;;12.43;6.20;;;;;;;;;;5016653;28;20180;-71
2023/10/11 11:51:55;;;;;;;18.37;6.60;;;;;;;;;;5017162;28;20168;-72
2023/10/11 11:54:28;;;;;;;18.33;6.60;;;;;;;;;;5016101;28;20179;-72
2023/10/11 11:56:55;;;;;;;15.80;6.43;;;;;;;;;;5017783;28;20168;-72
2023/10/11 11:59:22;;;;;;;12.67;6.33;;;;;;;;;;5017660;28;20204;-72
2023/10/11 12:01:59;;;;;;;13.10;6.30;;;;;;;;;;5018252;28;20572;-72
2023/10/11 12:04:29;;;;;;;15.40;6.60;;;;;;;;;;5017345;28;20175;-72
2023/10/11 12:07:09;;;;;;;10.63;6.23;;;;;;;;;;5017028;28;20196;-71
2023/10/11 12:09:35;;;;;;;13.20;6.77;;;;;;;;;;5017591;28;20194;-72
2023/10/11 12:12:03;;;;;;;14.47;6.57;;;;;;;;;;5017221;28;20187;-73
2023/10/11 12:14:30;;;;;;;15.80;6.50;;;;;;;;;;5017235;28;20253;-72
2023/10/11 12:16:56;;;;;;;18.63;6.73;;;;;;;;;;5017154;28;20171;-72
2023/10/11 12:19:22;;;;;;;13.10;6.80;;;;;;;;;;5017095;28;20175;-72
2023/10/11 12:21:48;;;;;;;21.63;6.70;;;;;;;;;;5017014;28;20219;-71
2023/10/11 12:24:14;;;;;;;21.37;7.03;;;;;;;;;;5016006;28;20216;-71
2023/10/11 12:26:41;;;;;;;14.63;7.00;;;;;;;;;;5015655;28;20587;-72
2023/10/11 12:29:08;;;;;;;13.80;6.20;;;;;;;;;;5016963;28;20198;-72
2023/10/11 12:31:38;;;;;;;13.90;6.37;;;;;;;;;;5016758;28;20704;-71
2023/10/11 12:34:05;;;;;;;20.37;6.70;;;;;;;;;;5016545;28;20200;-71
2023/10/11 12:36:32;;;;;;;25.40;7.83;;;;;;;;;;5015374;28;20271;-71
2023/10/11 12:38:58;;;;;;;19.80;6.57;;;;;;;;;;5016473;28;20176;-71
2023/10/11 12:41:24;;;;;;;15.60;6.60;;;;;;;;;;5015022;28;20700;-71
2023/10/11 12:43:50;;;;;;;15.20;6.87;;;;;;;;;;5014871;28;20215;-71
2023/10/11 12:46:18;;;;;;;11.53;6.13;;;;;;;;;;5016409;28;20233;-70
2023/10/11 12:48:44;;;;;;;16.23;7.10;;;;;;;;;;5014707;28;20202;-71
2023/10/11 12:51:10;;;;;;;15.73;6.33;;;;;;;;;;5016093;28;20255;-71
2023/10/11 12:53:36;;;;;;;12.40;6.30;;;;;;;;;;5015912;28;20200;-71
2023/10/11 12:56:02;;;;;;;18.00;6.73;;;;;;;;;;5016267;28;20176;-72
2023/10/11 12:58:38;;;;;;;12.27;6.07;;;;;;;;;;5015891;28;20179;-71
2023/10/11 13:01:11;;;;;;;14.47;5.87;;;;;;;;;;5015176;28;20559;-71
2023/10/11 13:03:40;;;;;;;17.23;6.30;;;;;;;;;;5015505;28;20338;-71
2023/10/11 13:06:10;;;;;;;13.70;6.20;;;;;;;;;;5014455;28;20263;-71
2023/10/11 13:08:40;;;;;;;15.27;6.47;;;;;;;;;;5015712;28;20175;-71
2023/10/11 13:11:12;;;;;;;15.63;6.37;;;;;;;;;;5015811;28;20641;-71
2023/10/11 13:13:38;;;;;;;12.03;6.40;;;;;;;;;;5015747;28;20195;-70
2023/10/11 13:16:06;;;;;;;12.43;6.03;;;;;;;;;;5015799;28;20180;-70
2023/10/11 13:18:40;;;;;;;16.30;6.23;;;;;;;;;;5016141;28;20175;-70
2023/10/11 13:21:11;;;;;;;19.40;6.87;;;;;;;;;;5013900;28;20176;-70
2023/10/11 13:23:37;;;;;;;21.10;7.03;;;;;;;;;;5015362;28;20204;-70
2023/10/11 13:26:07;;;;;;;17.17;6.50;;;;;;;;;;5013930;28;20176;-70
2023/10/11 13:28:33;;;;;;;16.57;6.00;;;;;;;;;;5014881;28;20179;-69
2023/10/11 13:31:02;;;;;;;12.60;6.00;;;;;;;;;;5015327;28;20176;-69
2023/10/11 13:33:32;;;;;;;15.73;5.90;;;;;;;;;;5015227;28;20199;-70
2023/10/11 13:36:08;;;;;;;11.80;5.80;;;;;;;;;;5014590;28;20610;-70
2023/10/11 13:38:34;;;;;;;15.30;6.23;;;;;;;;;;5015415;28;20159;-70
2023/10/11 13:41:00;;;;;;;12.53;6.40;;;;;;;;;;5013895;28;20187;-70
2023/10/11 13:43:26;;;;;;;17.70;6.40;;;;;;;;;;5015528;28;20262;-70
2023/10/11 13:45:56;;;;;;;15.93;6.33;;;;;;;;;;5015242;28;20235;-69
2023/10/11 13:48:26;;;;;;;14.90;6.83;;;;;;;;;;5015271;28;20222;-70
2023/10/11 13:50:54;;;;;;;18.90;6.77;;;;;;;;;;5015016;28;20180;-70
2023/10/11 13:53:23;;;;;;;19.10;6.07;;;;;;;;;;5013486;28;20689;-70
2023/10/11 13:55:51;;;;;;;16.80;6.23;;;;;;;;;;5013484;28;20589;-69
2023/10/11 13:58:19;;;;;;;19.07;6.23;;;;;;;;;;5014860;28;20190;-70
2023/10/11 14:05:44;;;;;;;15.37;6.13;;;;;;;;;;5014827;28;20184;-69
2023/10/11 14:08:28;;;;;;;20.30;6.93;;;;;;;;;;5014548;28;20215;-70
2023/10/11 14:10:54;;;;;;;17.00;6.73;;;;;;;;;;5014372;28;20678;-70
2023/10/11 14:13:24;;;;;;;17.87;6.30;;;;;;;;;;5014426;28;20580;-70
2023/10/11 14:16:04;;;;;;;17.63;6.30;;;;;;;;;;5015313;28;20180;-70
2023/10/11 14:18:32;;;;;;;15.77;5.87;;;;;;;;;;5014258;28;20183;-70
2023/10/11 14:20:58;;;;;;;14.73;6.30;;;;;;;;;;5015232;28;20180;-69
2023/10/11 14:23:27;;;;;;;17.70;6.53;;;;;;;;;;5013057;28;20641;-68
2023/10/11 14:25:56;;;;;;;14.97;6.13;;;;;;;;;;5014480;28;20172;-68
2023/10/11 14:28:22;;;;;;;15.10;6.53;;;;;;;;;;5014153;28;20179;-68
2023/10/11 14:30:51;;;;;;;13.77;6.10;;;;;;;;;;5012779;28;20172;-69
2023/10/11 14:33:18;;;;;;;17.03;6.87;;;;;;;;;;5012743;28;20276;-68
2023/10/11 14:35:44;;;;;;;13.13;6.03;;;;;;;;;;5014102;28;20274;-68
2023/10/11 14:38:14;;;;;;;15.37;6.63;;;;;;;;;;5014476;28;20180;-69
2023/10/11 14:40:42;;;;;;;11.00;6.03;;;;;;;;;;5013479;28;20188;-71
2023/10/11 14:43:11;;;;;;;14.70;6.20;;;;;;;;;;5013922;28;20208;-70
2023/10/11 14:45:40;;;;;;;12.00;5.77;;;;;;;;;;5014358;28;20172;-68
2023/10/11 14:48:08;;;;;;;14.97;6.20;;;;;;;;;;5013876;28;20234;-68
2023/10/11 14:50:37;;;;;;;12.83;4.90;;;;;;;;;;5012873;28;20176;-71
2023/10/11 14:53:04;;;;;;;16.03;6.10;;;;;;;;;;5012735;28;20262;-70
2023/10/11 14:55:32;;;;;;;19.00;6.57;;;;;;;;;;5012658;28;20191;-69
2023/10/11 14:57:58;;;;;;;14.37;5.70;;;;;;;;;;5013907;28;20616;-70
2023/10/11 15:00:25;;;;;;;14.07;5.53;;;;;;;;;;5013524;28;20183;-69
2023/10/11 15:02:52;;;;;;;13.47;5.53;;;;;;;;;;5012040;28;20226;-69
2023/10/11 15:05:18;;;;;;;21.27;5.97;;;;;;;;;;5012166;28;20180;-69
2023/10/11 15:07:48;;;;;;;13.13;6.13;;;;;;;;;;5013683;28;20171;-69
2023/10/11 15:10:15;;;;;;;20.57;6.17;;;;;;;;;;5013607;28;20227;-69
2023/10/11 15:12:41;;;;;;;13.93;5.33;;;;;;;;;;5013485;28;20614;-70
2023/10/11 15:15:11;;;;;;;12.00;5.40;;;;;;;;;;5012005;28;20188;-69
2023/10/11 15:17:37;;;;;;;18.13;6.20;;;;;;;;;;5013329;28;20176;-69
2023/10/11 15:20:04;;;;;;;12.37;5.13;;;;;;;;;;5013194;28;20179;-70
2023/10/11 15:22:33;;;;;;;15.90;5.77;;;;;;;;;;5012746;28;20298;-70
2023/10/11 15:24:59;;;;;;;13.83;6.70;;;;;;;;;;5013148;28;20179;-69
2023/10/11 15:27:25;;;;;;;13.77;5.90;;;;;;;;;;5013462;28;20267;-69
2023/10/11 15:29:51;;;;;;;15.10;6.13;;;;;;;;;;5011952;28;20233;-71
2023/10/11 15:32:17;;;;;;;16.00;6.13;;;;;;;;;;5012964;28;20204;-70
2023/10/11 15:34:44;;;;;;;14.70;5.67;;;;;;;;;;5013245;28;20182;-71